createdAt,value
2018-11-04T00:01:06.038Z,6.80
2018-11-04T00:03:35.198Z,6.80
2018-11-04T00:06:04.855Z,6.70
2018-11-04T00:08:33.966Z,6.70
2018-11-04T00:11:03.844Z,6.70
2018-11-04T00:13:32.836Z,6.80
2018-11-04T00:16:01.951Z,6.80
2018-11-04T00:18:31.216Z,6.70
2018-11-04T00:21:00.206Z,6.70
2018-11-04T00:23:29.247Z,6.70
2018-11-04T00:25:58.255Z,6.70
2018-11-04T00:28:29.024Z,6.70
2018-11-04T00:30:58.071Z,6.70
2018-11-04T00:33:27.117Z,6.80
2018-11-04T00:35:56.526Z,6.80
2018-11-04T00:38:25.537Z,6.80
2018-11-04T00:40:54.635Z,6.80
2018-11-04T00:43:23.741Z,6.90
2018-11-04T00:45:52.740Z,6.90
2018-11-04T00:48:22.123Z,6.90
2018-11-04T00:50:52.421Z,6.80
2018-11-04T00:53:21.473Z,6.90
2018-11-04T00:55:55.142Z,6.90
2018-11-04T00:58:25.660Z,6.90
2018-11-04T01:00:54.986Z,6.90
2018-11-04T01:03:24.032Z,6.90
2018-11-04T01:05:53.094Z,6.80
2018-11-04T01:08:22.052Z,6.80
2018-11-04T01:10:51.175Z,6.80
2018-11-04T01:13:20.201Z,6.90
2018-11-04T01:15:49.955Z,6.90
2018-11-04T01:18:18.949Z,6.80
2018-11-04T01:20:49.168Z,6.80
2018-11-04T01:23:18.145Z,6.90
2018-11-04T01:25:47.853Z,6.90
2018-11-04T01:28:16.972Z,6.90
2018-11-04T01:30:46.235Z,6.90
2018-11-04T01:33:15.258Z,6.90
2018-11-04T01:35:44.332Z,6.90
2018-11-04T01:38:13.970Z,6.90
2018-11-04T01:40:42.959Z,6.90
2018-11-04T01:43:11.981Z,6.90
2018-11-04T01:45:40.951Z,6.90
2018-11-04T01:48:10.274Z,6.90
2018-11-04T01:50:39.321Z,6.90
2018-11-04T01:53:08.358Z,6.90
2018-11-04T01:55:37.522Z,6.90
2018-11-04T01:58:06.507Z,6.90
2018-11-04T02:00:35.588Z,6.90
2018-11-04T02:03:04.601Z,6.90
2018-11-04T02:05:33.607Z,6.80
2018-11-04T02:08:02.624Z,6.90
2018-11-04T02:10:31.608Z,6.90
2018-11-04T02:13:01.109Z,6.90
2018-11-04T02:15:30.110Z,6.90
2018-11-04T02:17:59.373Z,6.90
2018-11-04T02:20:28.483Z,6.90
2018-11-04T02:22:57.480Z,6.90
2018-11-04T02:25:26.521Z,6.80
2018-11-04T02:27:55.679Z,6.90
2018-11-04T02:30:24.742Z,6.80
2018-11-04T02:32:55.671Z,6.90
2018-11-04T02:35:24.706Z,6.90
2018-11-04T02:37:54.467Z,6.90
2018-11-04T02:40:23.569Z,7.00
2018-11-04T02:42:52.595Z,7.00
2018-11-04T02:45:21.573Z,6.90
2018-11-04T02:47:50.559Z,6.90
2018-11-04T02:50:21.153Z,6.90
2018-11-04T02:52:50.151Z,7.00
2018-11-04T02:55:19.172Z,7.00
2018-11-04T02:57:48.188Z,7.00
2018-11-04T03:00:17.199Z,7.00
2018-11-04T03:02:46.294Z,6.90
2018-11-04T03:05:15.343Z,6.90
2018-11-04T03:07:44.259Z,6.90
2018-11-04T03:10:14.055Z,6.90
2018-11-04T03:12:43.807Z,6.90
2018-11-04T03:15:12.814Z,7.00
2018-11-04T03:17:42.115Z,7.00
2018-11-04T03:20:11.068Z,7.00
2018-11-04T03:22:40.069Z,6.90
2018-11-04T03:25:09.052Z,6.90
2018-11-04T03:27:38.042Z,6.90
2018-11-04T03:30:08.008Z,6.90
2018-11-04T03:32:36.967Z,6.90
2018-11-04T03:35:06.835Z,6.90
2018-11-04T03:37:35.863Z,6.90
2018-11-04T03:40:07.346Z,6.90
2018-11-04T03:42:36.500Z,6.90
2018-11-04T03:45:06.263Z,6.90
2018-11-04T03:47:35.286Z,7.00
2018-11-04T03:50:06.944Z,7.00
2018-11-04T03:52:35.979Z,7.00
2018-11-04T03:55:06.536Z,7.10
2018-11-04T03:57:36.495Z,7.10
2018-11-04T04:00:06.337Z,7.10
2018-11-04T04:02:35.361Z,7.10
2018-11-04T04:05:05.078Z,7.20
2018-11-04T04:07:34.225Z,7.20
2018-11-04T04:10:03.299Z,7.20
2018-11-04T04:12:32.579Z,7.20
2018-11-04T04:15:01.700Z,7.20
2018-11-04T04:17:30.926Z,7.20
2018-11-04T04:20:00.028Z,7.20
2018-11-04T04:22:29.139Z,7.20
2018-11-04T04:24:58.164Z,7.20
2018-11-04T04:27:27.246Z,7.20
2018-11-04T04:29:56.289Z,7.20
2018-11-04T04:32:25.328Z,7.20
2018-11-04T04:34:54.475Z,7.20
2018-11-04T04:37:23.713Z,7.20
2018-11-04T04:39:52.884Z,7.20
2018-11-04T04:42:21.977Z,7.20
2018-11-04T04:44:50.931Z,7.30
2018-11-04T04:47:19.992Z,7.20
2018-11-04T04:49:49.279Z,7.20
2018-11-04T04:52:18.374Z,7.20
2018-11-04T04:54:47.316Z,7.30
2018-11-04T04:57:16.255Z,7.30
2018-11-04T04:59:45.249Z,7.30
2018-11-04T05:02:14.524Z,7.30
2018-11-04T05:04:43.520Z,7.30
2018-11-04T05:07:12.481Z,7.30
2018-11-04T05:09:41.511Z,7.30
2018-11-04T05:12:10.468Z,7.30
2018-11-04T05:14:39.424Z,7.30
2018-11-04T05:17:08.438Z,7.30
2018-11-04T05:19:37.506Z,7.20
2018-11-04T05:22:06.764Z,7.20
2018-11-04T05:24:35.824Z,7.20
2018-11-04T05:27:05.126Z,7.20
2018-11-04T05:29:34.274Z,7.20
2018-11-04T05:32:03.335Z,7.30
2018-11-04T05:34:32.347Z,7.20
2018-11-04T05:37:01.529Z,7.30
2018-11-04T05:39:30.553Z,7.30
2018-11-04T05:41:59.619Z,7.30
2018-11-04T05:44:28.641Z,7.40
2018-11-04T05:46:57.656Z,7.40
2018-11-04T05:49:26.767Z,7.40
2018-11-04T05:51:55.783Z,7.40
2018-11-04T05:54:24.867Z,7.40
2018-11-04T05:56:53.967Z,7.40
2018-11-04T05:59:23.000Z,7.40
2018-11-04T06:01:52.018Z,7.40
2018-11-04T06:04:21.128Z,7.40
2018-11-04T06:06:50.226Z,7.50
2018-11-04T06:09:19.526Z,7.50
2018-11-04T06:11:48.704Z,7.40
2018-11-04T06:14:17.699Z,7.40
2018-11-04T06:16:46.988Z,7.40
2018-11-04T06:19:16.154Z,7.40
2018-11-04T06:21:45.256Z,7.50
2018-11-04T06:24:14.786Z,7.50
2018-11-04T06:26:43.951Z,7.50
2018-11-04T06:29:14.526Z,7.50
2018-11-04T06:31:43.759Z,7.50
2018-11-04T06:34:12.842Z,7.50
2018-11-04T06:36:42.212Z,7.60
2018-11-04T06:39:11.312Z,7.60
2018-11-04T06:41:40.439Z,7.50
2018-11-04T06:44:09.603Z,7.60
2018-11-04T06:46:38.669Z,7.50
2018-11-04T06:49:07.787Z,7.60
2018-11-04T06:51:36.874Z,7.60
2018-11-04T06:54:06.119Z,7.60
2018-11-04T06:56:35.215Z,7.60
2018-11-04T06:59:04.536Z,7.60
2018-11-04T07:01:33.726Z,7.60
2018-11-04T07:04:14.193Z,7.60
2018-11-04T07:06:43.307Z,7.60
2018-11-04T07:09:13.257Z,7.60
2018-11-04T07:11:42.361Z,7.60
2018-11-04T07:14:11.594Z,7.70
2018-11-04T07:16:40.790Z,7.60
2018-11-04T07:19:10.812Z,7.70
2018-11-04T07:21:39.977Z,7.70
2018-11-04T07:24:09.473Z,7.70
2018-11-04T07:26:38.570Z,7.80
2018-11-04T07:29:08.493Z,7.80
2018-11-04T07:31:37.567Z,7.80
2018-11-04T07:34:06.803Z,7.80
2018-11-04T07:36:35.990Z,7.80
2018-11-04T07:39:08.846Z,7.80
2018-11-04T07:41:37.983Z,7.90
2018-11-04T07:44:07.180Z,7.90
2018-11-04T07:46:36.237Z,7.90
2018-11-04T07:49:05.815Z,8.00
2018-11-04T07:51:34.973Z,8.00
2018-11-04T07:54:04.105Z,8.00
2018-11-04T07:56:33.260Z,8.00
2018-11-04T07:59:02.400Z,8.10
2018-11-04T08:01:32.470Z,8.10
2018-11-04T08:04:01.702Z,8.10
2018-11-04T08:06:31.284Z,8.10
2018-11-04T08:09:00.499Z,8.10
2018-11-04T08:11:29.767Z,8.10
2018-11-04T08:13:58.768Z,8.20
2018-11-04T08:16:27.888Z,8.20
2018-11-04T08:18:57.054Z,8.30
2018-11-04T08:21:26.320Z,8.30
2018-11-04T08:23:55.413Z,8.30
2018-11-04T08:26:24.515Z,8.40
2018-11-04T08:28:53.617Z,8.50
2018-11-04T08:31:22.695Z,8.50
2018-11-04T08:33:51.997Z,8.50
2018-11-04T08:36:21.331Z,8.60
2018-11-04T08:38:50.381Z,8.70
2018-11-04T08:41:19.579Z,8.70
2018-11-04T08:43:48.631Z,8.70
2018-11-04T08:46:17.668Z,8.70
2018-11-04T08:48:46.641Z,8.60
2018-11-04T08:51:15.774Z,8.50
2018-11-04T08:53:46.596Z,8.60
2018-11-04T08:56:15.859Z,8.60
2018-11-04T08:58:44.884Z,8.70
2018-11-04T09:01:14.074Z,8.80
2018-11-04T09:03:43.171Z,8.90
2018-11-04T09:06:12.198Z,8.90
2018-11-04T09:08:41.445Z,9.10
2018-11-04T09:11:10.583Z,9.10
2018-11-04T09:13:39.729Z,9.10
2018-11-04T09:16:08.828Z,9.00
2018-11-04T09:18:38.059Z,9.00
2018-11-04T09:21:07.393Z,9.10
2018-11-04T09:23:36.858Z,9.20
2018-11-04T09:26:06.287Z,9.30
2018-11-04T09:28:35.626Z,9.30
2018-11-04T09:31:04.730Z,9.30
2018-11-04T09:33:33.971Z,9.30
2018-11-04T09:36:03.092Z,9.30
2018-11-04T09:38:32.189Z,9.30
2018-11-04T09:41:01.346Z,9.30
2018-11-04T09:43:30.407Z,9.40
2018-11-04T09:45:59.609Z,9.40
2018-11-04T09:48:28.689Z,9.40
2018-11-04T09:50:57.763Z,9.50
2018-11-04T09:53:26.948Z,9.50
2018-11-04T09:55:57.714Z,9.50
2018-11-04T09:58:26.875Z,9.50
2018-11-04T10:00:56.274Z,9.50
2018-11-04T10:03:25.389Z,9.60
2018-11-04T10:05:54.587Z,9.60
2018-11-04T10:08:23.721Z,9.80
2018-11-04T10:10:52.826Z,9.90
2018-11-04T10:13:21.877Z,9.90
2018-11-04T10:15:50.960Z,10.00
2018-11-04T10:18:20.148Z,10.10
2018-11-04T10:20:49.611Z,10.20
2018-11-04T10:23:18.276Z,10.30
2018-11-04T10:25:47.365Z,10.40
2018-11-04T10:28:16.496Z,10.40
2018-11-04T10:30:45.564Z,10.40
2018-11-04T10:33:14.658Z,10.40
2018-11-04T10:35:43.724Z,10.40
2018-11-04T10:38:12.794Z,10.40
2018-11-04T10:40:41.913Z,10.60
2018-11-04T10:43:10.969Z,10.60
2018-11-04T10:45:40.156Z,10.70
2018-11-04T10:48:09.186Z,10.70
2018-11-04T10:50:38.433Z,10.90
2018-11-04T10:53:07.489Z,11.10
2018-11-04T10:55:36.778Z,11.20
2018-11-04T10:58:05.778Z,11.40
2018-11-04T11:00:43.031Z,11.50
2018-11-04T11:03:12.060Z,11.50
2018-11-04T11:05:41.906Z,11.50
2018-11-04T11:08:10.885Z,11.60
2018-11-04T11:10:39.859Z,11.70
2018-11-04T11:13:09.227Z,11.70
2018-11-04T11:15:38.312Z,11.70
2018-11-04T11:18:07.404Z,11.60
2018-11-04T11:20:36.483Z,11.60
2018-11-04T11:23:06.155Z,11.60
2018-11-04T11:25:35.278Z,11.70
2018-11-04T11:28:04.398Z,11.70
2018-11-04T11:30:33.493Z,11.70
2018-11-04T11:33:02.524Z,11.60
2018-11-04T11:35:37.256Z,11.60
2018-11-04T11:38:06.799Z,11.60
2018-11-04T11:40:36.626Z,11.60
2018-11-04T11:43:05.723Z,11.50
2018-11-04T11:45:34.819Z,11.60
2018-11-04T11:48:03.839Z,11.50
2018-11-04T11:50:33.200Z,11.50
2018-11-04T11:53:02.180Z,11.50
2018-11-04T11:55:31.642Z,11.60
2018-11-04T11:58:00.665Z,11.70
2018-11-04T12:00:29.744Z,11.90
2018-11-04T12:02:58.955Z,12.00
2018-11-04T12:05:28.003Z,12.20
2018-11-04T12:07:57.207Z,12.30
2018-11-04T12:10:26.219Z,12.40
2018-11-04T12:12:55.305Z,12.40
2018-11-04T12:15:25.395Z,12.50
2018-11-04T12:17:55.339Z,12.50
2018-11-04T12:20:24.411Z,12.50
2018-11-04T12:22:53.540Z,12.60
2018-11-04T12:25:22.658Z,12.60
2018-11-04T12:27:51.679Z,12.60
2018-11-04T12:30:21.477Z,12.60
2018-11-04T12:32:50.495Z,12.60
2018-11-04T12:35:19.570Z,12.50
2018-11-04T12:37:48.572Z,12.50
2018-11-04T12:40:17.611Z,12.40
2018-11-04T12:42:46.690Z,12.50
2018-11-04T12:45:16.425Z,12.50
2018-11-04T12:47:45.490Z,12.50
2018-11-04T12:50:14.571Z,12.50
2018-11-04T12:52:43.711Z,12.50
2018-11-04T12:55:12.752Z,12.50
2018-11-04T12:57:41.793Z,12.60
2018-11-04T13:00:13.885Z,12.60
2018-11-04T13:02:44.001Z,12.50
2018-11-04T13:05:13.164Z,12.50
2018-11-04T13:07:42.340Z,12.60
2018-11-04T13:10:12.755Z,12.60
2018-11-04T13:12:41.866Z,12.60
2018-11-04T13:15:12.406Z,12.60
2018-11-04T13:17:42.965Z,12.50
2018-11-04T13:20:12.295Z,12.50
2018-11-04T13:22:41.418Z,12.50
2018-11-04T13:25:10.826Z,12.40
2018-11-04T13:27:39.879Z,12.40
2018-11-04T13:30:10.412Z,12.40
2018-11-04T13:32:39.560Z,12.30
2018-11-04T13:35:08.743Z,12.30
2018-11-04T13:37:37.887Z,12.30
2018-11-04T13:40:08.348Z,12.30
2018-11-04T13:42:37.508Z,12.20
2018-11-04T13:45:07.314Z,12.20
2018-11-04T13:47:36.751Z,12.20
2018-11-04T13:50:07.922Z,12.20
2018-11-04T13:52:37.102Z,12.10
2018-11-04T13:55:07.150Z,12.10
2018-11-04T13:57:36.304Z,12.10
2018-11-04T14:00:07.186Z,12.10
2018-11-04T14:02:36.292Z,12.10
2018-11-04T14:05:06.397Z,12.10
2018-11-04T14:07:35.565Z,12.10
2018-11-04T14:10:05.097Z,12.10
2018-11-04T14:12:34.335Z,12.10
2018-11-04T14:15:04.451Z,12.10
2018-11-04T14:17:33.698Z,12.10
2018-11-04T14:20:02.884Z,12.00
2018-11-04T14:22:32.019Z,12.00
2018-11-04T14:25:01.166Z,12.00
2018-11-04T14:27:30.947Z,12.10
2018-11-04T14:29:59.966Z,12.00
2018-11-04T14:32:29.343Z,12.00
2018-11-04T14:34:58.491Z,12.00
2018-11-04T14:37:28.196Z,12.00
2018-11-04T14:39:57.293Z,12.00
2018-11-04T14:42:26.997Z,12.00
2018-11-04T14:44:56.203Z,12.00
2018-11-04T14:47:25.758Z,11.90
2018-11-04T14:49:54.775Z,12.00
2018-11-04T14:52:23.851Z,11.90
2018-11-04T14:54:52.795Z,11.90
2018-11-04T14:57:21.813Z,11.90
2018-11-04T14:59:50.958Z,11.90
2018-11-04T15:02:19.882Z,11.90
2018-11-04T15:04:48.873Z,11.80
2018-11-04T15:07:18.052Z,11.80
2018-11-04T15:09:47.340Z,11.80
2018-11-04T15:12:16.504Z,11.80
2018-11-04T15:14:45.597Z,11.80
2018-11-04T15:17:14.798Z,11.70
2018-11-04T15:19:43.817Z,11.70
2018-11-04T15:22:12.912Z,11.70
2018-11-04T15:24:41.930Z,11.70
2018-11-04T15:27:11.089Z,11.70
2018-11-04T15:29:41.236Z,11.70
2018-11-04T15:32:10.314Z,11.70
2018-11-04T15:34:39.836Z,11.60
2018-11-04T15:37:08.771Z,11.60
2018-11-04T15:39:38.541Z,11.60
2018-11-04T15:42:07.628Z,11.60
2018-11-04T15:44:36.796Z,11.50
2018-11-04T15:47:06.006Z,11.50
2018-11-04T15:49:35.771Z,11.50
2018-11-04T15:52:04.955Z,11.50
2018-11-04T15:54:33.991Z,11.50
2018-11-04T15:57:08.586Z,11.50
2018-11-04T15:59:37.728Z,11.40
2018-11-04T16:02:06.837Z,11.40
2018-11-04T16:04:44.546Z,11.40
2018-11-04T16:07:05.570Z,11.50
2018-11-04T16:09:41.277Z,11.50
2018-11-04T16:12:10.936Z,11.40
2018-11-04T16:14:40.467Z,11.40
2018-11-04T16:17:10.204Z,11.40
2018-11-04T16:19:39.361Z,11.40
2018-11-04T16:22:08.372Z,11.30
2018-11-04T16:24:37.449Z,11.30
2018-11-04T16:27:06.481Z,11.30
2018-11-04T16:29:36.212Z,11.20
2018-11-04T16:32:05.432Z,11.20
2018-11-04T16:34:34.486Z,11.30
2018-11-04T16:37:03.628Z,11.20
2018-11-04T16:39:32.772Z,11.20
2018-11-04T16:42:01.854Z,11.20
2018-11-04T16:44:30.885Z,11.20
2018-11-04T16:46:59.790Z,11.10
2018-11-04T16:49:28.792Z,11.10
2018-11-04T16:51:57.777Z,11.10
2018-11-04T16:54:26.742Z,11.20
2018-11-04T16:56:56.009Z,11.20
2018-11-04T16:59:25.653Z,11.20
2018-11-04T17:01:54.908Z,11.10
2018-11-04T17:04:24.041Z,11.20
2018-11-04T17:06:52.869Z,11.20
2018-11-04T17:09:21.955Z,11.10
2018-11-04T17:11:51.108Z,11.10
2018-11-04T17:14:20.111Z,11.10
2018-11-04T17:16:49.209Z,11.10
2018-11-04T17:19:18.211Z,11.10
2018-11-04T17:21:47.235Z,11.10
2018-11-04T17:24:16.312Z,11.10
2018-11-04T17:26:45.287Z,11.10
2018-11-04T17:29:14.266Z,11.10
2018-11-04T17:31:43.819Z,11.10
2018-11-04T17:34:12.816Z,11.00
2018-11-04T17:36:41.857Z,11.10
2018-11-04T17:39:12.190Z,11.10
2018-11-04T17:41:41.581Z,11.10
2018-11-04T17:44:11.002Z,11.10
2018-11-04T17:46:40.033Z,11.10
2018-11-04T17:49:09.610Z,11.00
2018-11-04T17:51:39.345Z,11.00
2018-11-04T17:54:08.567Z,11.10
2018-11-04T17:56:38.323Z,11.10
2018-11-04T17:59:07.367Z,11.00
2018-11-04T18:01:36.515Z,11.00
2018-11-04T18:04:08.236Z,11.00
2018-11-04T18:06:37.492Z,11.00
2018-11-04T18:09:08.645Z,10.90
2018-11-04T18:11:37.821Z,10.90
2018-11-04T18:14:07.195Z,10.90
2018-11-04T18:19:14.324Z,10.80
2018-11-04T18:21:43.391Z,10.90
2018-11-04T18:24:13.256Z,10.90
2018-11-04T18:26:42.236Z,10.90
2018-11-04T18:29:11.197Z,10.90
2018-11-04T18:31:40.350Z,10.90
2018-11-04T18:34:09.484Z,10.90
2018-11-04T18:36:38.542Z,10.90
2018-11-04T18:39:08.363Z,11.00
2018-11-04T18:41:37.889Z,11.00
2018-11-04T18:44:07.224Z,10.90
2018-11-04T18:46:36.393Z,10.90
2018-11-04T18:49:05.780Z,10.90
2018-11-04T18:51:35.011Z,10.90
2018-11-04T18:54:04.256Z,10.90
2018-11-04T18:56:33.433Z,10.80
2018-11-04T18:59:02.649Z,10.90
2018-11-04T19:01:31.567Z,10.90
2018-11-04T19:04:00.645Z,10.80
2018-11-04T19:06:29.922Z,10.80
2018-11-04T19:08:58.926Z,10.80
2018-11-04T19:11:28.256Z,10.80
2018-11-04T19:13:57.289Z,10.80
2018-11-04T19:16:26.318Z,10.80
2018-11-04T19:18:55.461Z,10.80
2018-11-04T19:21:24.402Z,10.80
2018-11-04T19:23:53.505Z,10.70
2018-11-04T19:26:22.511Z,10.70
2018-11-04T19:31:31.176Z,10.60
2018-11-04T19:34:00.183Z,10.60
2018-11-04T19:36:29.498Z,10.60
2018-11-04T19:38:58.527Z,10.60
2018-11-04T19:41:27.631Z,10.60
2018-11-04T19:43:56.757Z,10.60
2018-11-04T19:46:25.903Z,10.60
2018-11-04T19:48:54.983Z,10.70
2018-11-04T19:51:24.081Z,10.80
2018-11-04T19:53:53.144Z,10.70
2018-11-04T19:56:22.453Z,10.70
2018-11-04T19:58:51.632Z,10.60
2018-11-04T20:01:20.713Z,10.60
2018-11-04T20:03:50.336Z,10.60
2018-11-04T20:06:19.430Z,10.50
2018-11-04T20:08:54.166Z,10.50
2018-11-04T20:11:23.882Z,10.50
2018-11-04T20:13:58.567Z,10.50
2018-11-04T20:16:28.037Z,10.50
2018-11-04T20:19:03.813Z,10.50
2018-11-04T20:21:34.459Z,10.50
2018-11-04T20:24:08.798Z,10.50
2018-11-04T20:26:38.948Z,10.50
2018-11-04T20:29:07.994Z,10.60
2018-11-04T20:31:42.330Z,10.60
2018-11-04T20:34:11.495Z,10.50
2018-11-04T20:36:41.255Z,10.50
2018-11-04T20:39:15.725Z,10.50
2018-11-04T20:41:46.102Z,10.50
2018-11-04T20:44:15.172Z,10.60
2018-11-04T20:46:44.310Z,10.50
2018-11-04T20:49:19.128Z,10.50
2018-11-04T20:51:49.562Z,10.50
2018-11-04T20:54:18.673Z,10.60
2018-11-04T20:56:53.099Z,10.60
2018-11-04T20:59:22.498Z,10.60
2018-11-04T21:01:51.990Z,10.60
2018-11-04T21:04:21.031Z,10.60
2018-11-04T21:06:50.041Z,10.70
2018-11-04T21:09:19.142Z,10.60
2018-11-04T21:11:48.331Z,10.70
2018-11-04T21:14:17.440Z,10.70
2018-11-04T21:16:46.660Z,10.70
2018-11-04T21:19:15.451Z,10.60
2018-11-04T21:21:44.481Z,10.60
2018-11-04T21:24:13.378Z,10.60
2018-11-04T21:26:42.525Z,10.60
2018-11-04T21:29:12.032Z,10.60
2018-11-04T21:31:40.965Z,10.60
2018-11-04T21:34:10.034Z,10.60
2018-11-04T21:36:39.317Z,10.60
2018-11-04T21:39:09.547Z,10.60
2018-11-04T21:41:38.747Z,10.60
2018-11-04T21:44:08.556Z,10.60
2018-11-04T21:46:37.759Z,10.50
2018-11-04T21:49:06.787Z,10.50
2018-11-04T21:51:35.777Z,10.50
2018-11-04T21:54:04.901Z,10.60
2018-11-04T21:56:34.651Z,10.50
2018-11-04T21:59:04.109Z,10.50
2018-11-04T22:01:33.155Z,10.50
2018-11-04T22:04:02.332Z,10.50
2018-11-04T22:06:31.281Z,10.50
2018-11-04T22:09:00.244Z,10.50
2018-11-04T22:11:29.310Z,10.50
2018-11-04T22:13:58.386Z,10.50
2018-11-04T22:16:27.423Z,10.50
2018-11-04T22:18:56.539Z,10.40
2018-11-04T22:21:26.446Z,10.40
2018-11-04T22:23:56.149Z,10.30
2018-11-04T22:26:25.280Z,10.30
2018-11-04T22:28:54.417Z,10.40
2018-11-04T22:31:23.469Z,10.40
2018-11-04T22:33:52.579Z,10.40
2018-11-04T22:36:21.840Z,10.40
2018-11-04T22:38:51.042Z,10.40
2018-11-04T22:41:20.741Z,10.40
2018-11-04T22:43:50.059Z,10.40
2018-11-04T22:46:19.038Z,10.40
2018-11-04T22:48:48.113Z,10.40
2018-11-04T22:51:17.534Z,10.50
2018-11-04T22:53:47.018Z,10.50
2018-11-04T22:56:17.849Z,10.50
2018-11-04T22:58:47.671Z,10.50
2018-11-04T23:01:16.937Z,10.40
2018-11-04T23:03:45.940Z,10.40
2018-11-04T23:06:14.988Z,10.30
2018-11-04T23:08:44.094Z,10.30
2018-11-04T23:11:13.117Z,10.30
2018-11-04T23:13:42.291Z,10.20
2018-11-04T23:16:11.327Z,10.30
2018-11-04T23:18:40.513Z,10.30
2018-11-04T23:21:10.495Z,10.20
2018-11-04T23:23:39.518Z,10.20
2018-11-04T23:26:08.876Z,10.30
2018-11-04T23:28:38.015Z,10.30
2018-11-04T23:31:07.022Z,10.30
2018-11-04T23:33:36.141Z,10.30
2018-11-04T23:36:05.789Z,10.20
2018-11-04T23:38:34.849Z,10.30
2018-11-04T23:41:04.061Z,10.20
2018-11-04T23:43:33.057Z,10.30
2018-11-04T23:46:02.191Z,10.20
2018-11-04T23:48:31.251Z,10.20
2018-11-04T23:51:00.379Z,10.30
2018-11-04T23:53:29.699Z,10.30
2018-11-04T23:55:59.513Z,10.20
2018-11-04T23:58:28.663Z,10.20
